createdAt,value
2018-06-08T00:00:59.666Z,22.6
2018-06-08T00:02:09.485Z,22.55
2018-06-08T00:03:19.564Z,22.49
2018-06-08T00:04:29.384Z,22.45
2018-06-08T00:05:39.547Z,22.44
2018-06-08T00:06:49.612Z,22.41
2018-06-08T00:07:59.440Z,22.31
2018-06-08T00:09:09.510Z,22.29
2018-06-08T00:10:19.587Z,22.29
2018-06-08T00:11:29.661Z,22.26
2018-06-08T00:12:39.731Z,22.18
2018-06-08T00:13:49.550Z,22.23
2018-06-08T00:14:59.618Z,22.16
2018-06-08T00:16:09.701Z,22.16
2018-06-08T00:17:19.791Z,22.07
2018-06-08T00:18:29.861Z,22.09
2018-06-08T00:19:39.940Z,22
2018-06-08T00:20:50.049Z,21.97
2018-06-08T00:21:59.886Z,21.99
2018-06-08T00:23:09.983Z,22.04
2018-06-08T00:24:20.068Z,21.99
2018-06-08T00:25:30.177Z,21.96
2018-06-08T00:26:40.259Z,21.93
2018-06-08T00:27:50.339Z,21.97
2018-06-08T00:29:00.422Z,21.97
2018-06-08T00:30:10.506Z,21.83
2018-06-08T00:31:20.600Z,21.89
2018-06-08T00:32:30.167Z,21.89
2018-06-08T00:33:39.998Z,21.85
2018-06-08T00:34:50.067Z,21.78
2018-06-08T00:36:00.145Z,21.8
2018-06-08T00:37:09.960Z,21.78
2018-06-08T00:38:20.047Z,21.78
2018-06-08T00:39:30.122Z,21.78
2018-06-08T00:40:40.217Z,21.8
2018-06-08T00:41:50.317Z,21.73
2018-06-08T00:43:00.379Z,21.76
2018-06-08T00:44:10.450Z,21.71
2018-06-08T00:45:20.266Z,21.82
2018-06-08T00:46:30.908Z,21.73
2018-06-08T00:47:40.976Z,21.71
2018-06-08T00:48:51.044Z,21.77
2018-06-08T00:50:01.111Z,21.73
2018-06-08T00:51:11.189Z,21.71
2018-06-08T00:52:21.246Z,21.8
2018-06-08T00:53:31.310Z,21.71
2018-06-08T00:54:41.391Z,21.76
2018-06-08T00:55:51.460Z,21.68
2018-06-08T00:57:01.292Z,21.76
2018-06-08T00:58:11.379Z,21.7
2018-06-08T00:59:21.186Z,21.7
2018-06-08T01:00:31.267Z,21.73
2018-06-08T01:01:41.349Z,21.73
2018-06-08T01:02:51.418Z,21.73
2018-06-08T01:04:01.524Z,21.7
2018-06-08T01:05:11.082Z,21.67
2018-06-08T01:06:21.201Z,21.68
2018-06-08T01:07:31.275Z,21.74
2018-06-08T01:08:41.339Z,21.71
2018-06-08T01:09:50.886Z,21.59
2018-06-08T01:11:00.695Z,21.64
2018-06-08T01:12:10.876Z,21.59
2018-06-08T01:13:20.958Z,21.7
2018-06-08T01:14:31.044Z,21.64
2018-06-08T01:15:40.857Z,21.53
2018-06-08T01:16:50.663Z,21.58
2018-06-08T01:18:00.773Z,21.66
2018-06-08T01:19:10.857Z,21.59
2018-06-08T01:20:20.681Z,21.51
2018-06-08T01:21:30.503Z,21.55
2018-06-08T01:22:40.642Z,21.51
2018-06-08T01:23:50.493Z,21.58
2018-06-08T01:25:00.560Z,21.49
2018-06-08T01:26:10.640Z,21.43
2018-06-08T01:27:20.704Z,21.46
2018-06-08T01:28:30.829Z,21.43
2018-06-08T01:29:40.637Z,21.45
2018-06-08T01:30:50.734Z,21.4
2018-06-08T01:32:00.560Z,21.36
2018-06-08T01:33:10.695Z,21.38
2018-06-08T01:34:20.789Z,21.31
2018-06-08T01:35:30.866Z,21.21
2018-06-08T01:36:40.923Z,21.31
2018-06-08T01:37:51.015Z,21.31
2018-06-08T01:39:01.095Z,21.3
2018-06-08T01:40:11.179Z,21.19
2018-06-08T01:41:21.252Z,21.21
2018-06-08T01:42:31.339Z,21.19
2018-06-08T01:43:41.432Z,21.22
2018-06-08T01:44:51.501Z,21.25
2018-06-08T01:46:01.326Z,21.28
2018-06-08T01:47:11.418Z,21.23
2018-06-08T01:48:21.481Z,21.22
2018-06-08T01:49:31.570Z,21.23
2018-06-08T01:50:41.694Z,21.34
2018-06-08T01:51:51.775Z,21.27
2018-06-08T01:53:01.832Z,21.22
2018-06-08T01:54:11.919Z,21.23
2018-06-08T01:55:21.991Z,21.22
2018-06-08T01:56:31.802Z,21.27
2018-06-08T01:57:41.874Z,21.23
2018-06-08T01:58:51.949Z,21.27
2018-06-08T02:00:02.038Z,21.18
2018-06-08T02:01:12.107Z,21.19
2018-06-08T02:02:22.174Z,21.16
2018-06-08T02:03:31.729Z,21.16
2018-06-08T02:04:41.813Z,21.16
2018-06-08T02:05:51.627Z,21.23
2018-06-08T02:07:01.719Z,21.21
2018-06-08T02:08:11.790Z,21.21
2018-06-08T02:09:21.862Z,21.27
2018-06-08T02:10:31.674Z,21.21
2018-06-08T02:11:41.502Z,21.08
2018-06-08T02:12:51.587Z,21.08
2018-06-08T02:14:01.656Z,21.11
2018-06-08T02:15:11.490Z,21.08
2018-06-08T02:16:21.562Z,21.08
2018-06-08T02:17:31.648Z,21.01
2018-06-08T02:18:41.718Z,20.98
2018-06-08T02:19:51.796Z,21.04
2018-06-08T02:21:01.597Z,21.04
2018-06-08T02:22:11.674Z,21.04
2018-06-08T02:23:21.497Z,21.06
2018-06-08T02:24:31.570Z,21.11
2018-06-08T02:25:41.703Z,21.11
2018-06-08T02:26:51.775Z,21.16
2018-06-08T02:28:01.845Z,21.15
2018-06-08T02:29:11.656Z,21.18
2018-06-08T02:30:21.726Z,21.25
2018-06-08T02:31:31.827Z,21.13
2018-06-08T02:32:41.915Z,21.18
2018-06-08T02:33:51.992Z,21.19
2018-06-08T02:35:02.084Z,21.23
2018-06-08T02:36:11.899Z,21.25
2018-06-08T02:37:21.975Z,21.16
2018-06-08T02:38:32.068Z,21.28
2018-06-08T02:39:41.883Z,21.21
2018-06-08T02:40:51.967Z,21.37
2018-06-08T02:42:02.046Z,21.37
2018-06-08T02:43:11.586Z,21.38
2018-06-08T02:44:21.647Z,21.41
2018-06-08T02:45:31.735Z,21.43
2018-06-08T02:46:41.817Z,21.49
2018-06-08T02:47:51.913Z,21.49
2018-06-08T02:49:02.048Z,21.59
2018-06-08T02:50:12.123Z,21.52
2018-06-08T02:51:22.202Z,21.67
2018-06-08T02:52:32.291Z,21.68
2018-06-08T02:53:42.381Z,21.62
2018-06-08T02:54:52.467Z,21.7
2018-06-08T02:56:02.548Z,21.71
2018-06-08T02:57:12.385Z,21.71
2018-06-08T02:58:22.477Z,21.78
2018-06-08T02:59:32.292Z,21.7
2018-06-08T03:00:42.164Z,21.73
2018-06-08T03:01:52.240Z,21.68
2018-06-08T03:03:02.050Z,21.77
2018-06-08T03:35:03.903Z,20.27
2018-06-08T03:36:13.969Z,20.27
2018-06-08T03:37:24.032Z,20.4
2018-06-08T03:38:33.858Z,20.4
2018-06-08T03:39:43.926Z,20.35
2018-06-08T03:40:54.780Z,20.38
2018-06-08T03:42:04.592Z,20.53
2018-06-08T03:43:14.390Z,20.63
2018-06-08T03:44:24.448Z,20.68
2018-06-08T03:45:34.506Z,20.82
2018-06-08T03:46:44.577Z,20.85
2018-06-08T03:47:54.646Z,20.98
2018-06-08T03:49:04.848Z,21.11
2018-06-08T03:50:14.910Z,21.18
2018-06-08T03:51:24.731Z,21.36
2018-06-08T03:52:34.843Z,21.41
2018-06-08T03:53:44.644Z,21.49
2018-06-08T03:54:54.464Z,21.66
2018-06-08T03:56:04.667Z,21.76
2018-06-08T03:57:14.504Z,21.89
2018-06-08T03:58:24.306Z,22.11
2018-06-08T03:59:34.370Z,22.27
2018-06-08T04:00:44.446Z,22.24
2018-06-08T04:01:54.527Z,22.42
2018-06-08T04:03:04.352Z,22.46
2018-06-08T04:04:14.429Z,22.48
2018-06-08T04:05:24.236Z,22.54
2018-06-08T04:06:34.303Z,22.54
2018-06-08T04:07:44.380Z,22.55
2018-06-08T04:08:54.176Z,22.57
2018-06-08T04:10:03.730Z,22.64
2018-06-08T04:11:13.825Z,22.71
2018-06-08T04:12:23.647Z,22.78
2018-06-08T04:13:33.733Z,22.92
2018-06-08T04:14:43.802Z,23.1
2018-06-08T04:15:53.708Z,23.12
2018-06-08T04:17:03.545Z,23.26
2018-06-08T04:18:13.632Z,23.41
2018-06-08T04:19:23.708Z,23.74
2018-06-08T04:20:33.517Z,24.27
2018-06-08T04:21:43.636Z,24.32
2018-06-08T04:22:53.689Z,24.09
2018-06-08T04:24:03.485Z,24.09
2018-06-08T04:25:13.332Z,24.77
2018-06-08T04:26:23.413Z,25
2018-06-08T04:27:33.491Z,25.33
2018-06-08T04:28:43.562Z,25.71
2018-06-08T04:29:53.633Z,25.94
2018-06-08T04:31:03.705Z,26.19
2018-06-08T04:32:13.546Z,26.26
2018-06-08T04:33:23.377Z,26.39
2018-06-08T04:34:33.460Z,26.53
2018-06-08T04:35:43.522Z,26.79
2018-06-08T04:36:53.337Z,26.84
2018-06-08T04:38:03.410Z,26.9
2018-06-08T04:39:13.573Z,26.93
2018-06-08T04:40:23.169Z,27.38
2018-06-08T04:41:33.407Z,27.94
2018-06-08T04:42:43.487Z,28.57
2018-06-08T04:43:53.571Z,29.1
2018-06-08T04:45:03.393Z,29.51
2018-06-08T04:46:13.461Z,29.92
2018-06-08T04:47:23.543Z,30.34
2018-06-08T04:48:33.611Z,30.75
2018-06-08T04:49:43.692Z,30.96
2018-06-08T04:50:53.775Z,31.26
2018-06-08T04:52:03.862Z,31.52
2018-06-08T04:53:13.943Z,31.63
2018-06-08T04:54:24.027Z,31.74
2018-06-08T04:55:34.136Z,31.86
2018-06-08T04:56:44.273Z,31.74
2018-06-08T04:57:54.345Z,31.86
2018-06-08T04:59:04.441Z,31.81
2018-06-08T05:00:14.525Z,31.91
2018-06-08T05:01:24.560Z,32.01
2018-06-08T05:02:34.366Z,32.16
2018-06-08T05:03:44.190Z,32.3
2018-06-08T05:04:54.283Z,32.34
2018-06-08T05:06:04.351Z,32.16
2018-06-08T05:07:14.417Z,32.1
2018-06-08T05:08:24.516Z,32.09
2018-06-08T05:09:34.601Z,31.97
2018-06-08T05:10:44.459Z,32.08
2018-06-08T05:11:54.544Z,31.97
2018-06-08T05:13:04.622Z,31.75
2018-06-08T05:14:14.443Z,31.59
2018-06-08T05:15:24.525Z,31.43
2018-06-08T05:16:34.608Z,31.23
2018-06-08T05:17:44.423Z,30.63
2018-06-08T05:18:54.519Z,29.97
2018-06-08T05:20:04.612Z,29.47
2018-06-08T05:21:14.692Z,29.42
2018-06-08T05:22:24.780Z,29.6
2018-06-08T05:23:34.869Z,29.95
2018-06-08T05:24:44.412Z,30.16
2018-06-08T05:25:54.528Z,30.45
2018-06-08T05:27:04.622Z,30.75
2018-06-08T05:28:14.702Z,30.57
2018-06-08T05:29:24.508Z,30.56
2018-06-08T05:30:34.593Z,31.04
2018-06-08T05:31:44.755Z,30.84
2018-06-08T05:32:55.011Z,30.93
2018-06-08T05:34:04.839Z,31.5
2018-06-08T05:35:14.915Z,32.09
2018-06-08T05:36:24.741Z,32.28
2018-06-08T05:37:34.601Z,32.34
2018-06-08T05:38:44.667Z,32.15
2018-06-08T05:39:54.751Z,31.95
2018-06-08T05:41:04.578Z,32.17
2018-06-08T05:42:14.390Z,32.47
2018-06-08T05:43:24.567Z,32.39
2018-06-08T05:44:34.634Z,32.34
2018-06-08T05:45:44.450Z,31.52
2018-06-08T05:46:54.551Z,30.89
2018-06-08T05:48:04.361Z,30.59
2018-06-08T05:49:14.632Z,30.26
2018-06-08T05:50:24.708Z,30.75
2018-06-08T05:51:34.535Z,31.1
2018-06-08T05:52:44.627Z,31.3
2018-06-08T05:53:54.697Z,31.21
2018-06-08T05:55:04.765Z,31.19
2018-06-08T05:56:14.866Z,31.16
2018-06-08T05:57:24.695Z,31.25
2018-06-08T05:58:34.760Z,31.34
2018-06-08T05:59:44.842Z,30.99
2018-06-08T06:00:55.104Z,30.64
2018-06-08T06:02:04.910Z,30.48
2018-06-08T06:03:14.992Z,30.28
2018-06-08T06:04:25.075Z,30.07
2018-06-08T06:05:35.163Z,30.06
2018-06-08T06:06:45.242Z,30.13
2018-06-08T06:07:55.314Z,29.76
2018-06-08T06:09:05.400Z,29.26
2018-06-08T06:10:15.498Z,28.91
2018-06-08T06:11:25.309Z,28.57
2018-06-08T06:12:35.123Z,28.48
2018-06-08T06:13:45.188Z,28.6
2018-06-08T06:14:55.355Z,28.73
2018-06-08T06:16:05.577Z,29.05
2018-06-08T06:17:15.656Z,29.36
2018-06-08T06:18:25.774Z,29.35
2018-06-08T06:19:35.579Z,29.45
2018-06-08T06:20:45.412Z,29.54
2018-06-08T06:21:55.529Z,29.61
2018-06-08T06:23:05.625Z,29.77
2018-06-08T06:24:15.447Z,29.94
2018-06-08T06:25:25.532Z,29.85
2018-06-08T06:26:35.373Z,30
2018-06-08T06:27:45.467Z,30.11
2018-06-08T06:28:55.296Z,30.13
2018-06-08T06:30:05.112Z,29.97
2018-06-08T06:31:14.953Z,29.73
2018-06-08T06:32:24.897Z,29.65
2018-06-08T06:33:35.118Z,29.48
2018-06-08T06:34:45.183Z,29.35
2018-06-08T06:35:55.255Z,29.33
2018-06-08T06:37:05.339Z,29.5
2018-06-08T06:38:15.423Z,29.69
2018-06-08T06:39:25.515Z,29.51
2018-06-08T06:40:35.335Z,29.26
2018-06-08T06:41:45.405Z,29.11
2018-06-08T06:42:55.487Z,28.97
2018-06-08T06:44:05.577Z,28.94
2018-06-08T06:45:15.648Z,29.14
2018-06-08T06:46:25.740Z,29.33
2018-06-08T06:47:35.827Z,29.52
2018-06-08T06:48:45.905Z,29.79
2018-06-08T06:49:56.006Z,30.51
2018-06-08T06:51:05.834Z,30.57
2018-06-08T06:52:15.910Z,30.79
2018-06-08T06:53:25.996Z,31.06
2018-06-08T06:54:36.112Z,31.1
2018-06-08T06:55:46.185Z,30.88
2018-06-08T06:56:55.988Z,30.79
2018-06-08T06:58:06.069Z,30.88
2018-06-08T06:59:16.134Z,30.99
2018-06-08T07:00:26.217Z,31.13
2018-06-08T07:01:36.300Z,31.07
2018-06-08T07:02:46.376Z,30.96
2018-06-08T07:03:56.470Z,30.84
2018-06-08T07:05:06.598Z,30.82
2018-06-08T07:06:16.696Z,30.93
2018-06-08T07:07:26.502Z,30.91
2018-06-08T07:08:36.587Z,30.75
2018-06-08T07:09:46.656Z,30.31
2018-06-08T07:10:56.211Z,30.04
2018-06-08T07:12:06.294Z,29.65
2018-06-08T07:13:16.371Z,29.38
2018-06-08T07:14:26.463Z,29.05
2018-06-08T07:15:36.544Z,28.94
2018-06-08T07:16:46.418Z,28.9
2018-06-08T07:17:56.507Z,29.06
2018-06-08T07:19:06.339Z,29.15
2018-06-08T07:20:16.426Z,29.17
2018-06-08T07:21:26.517Z,29.03
2018-06-08T07:22:36.599Z,28.9
2018-06-08T07:23:46.409Z,28.86
2018-06-08T07:24:56.617Z,28.76
2018-06-08T07:26:06.714Z,28.53
2018-06-08T07:27:16.796Z,28.39
2018-06-08T07:28:26.931Z,28.31
2018-06-08T07:29:37.041Z,28.36
2018-06-08T07:30:46.840Z,28.38
2018-06-08T07:31:57.129Z,28.43
2018-06-08T07:33:06.712Z,28.39
2018-06-08T07:34:16.868Z,28.28
2018-06-08T07:35:26.960Z,28.24
2018-06-08T07:36:36.773Z,28.18
2018-06-08T07:37:46.840Z,28.14
2018-06-08T07:38:56.660Z,28.18
2018-06-08T07:40:07.011Z,28.31
2018-06-08T07:41:16.832Z,28.17
2018-06-08T07:42:26.664Z,28.2
2018-06-08T07:43:36.755Z,28.23
2018-06-08T07:44:46.849Z,28.26
2018-06-08T07:45:56.668Z,28.53
2018-06-08T07:47:06.790Z,28.78
2018-06-08T07:48:16.859Z,28.98
2018-06-08T07:49:26.702Z,29.26
2018-06-08T07:50:36.774Z,29.42
2018-06-08T07:51:46.600Z,29.81
2018-06-08T07:52:56.466Z,30.1
2018-06-08T07:54:06.544Z,30.28
2018-06-08T07:55:16.652Z,30.71
2018-06-08T07:56:26.498Z,30.77
2018-06-08T07:57:36.567Z,30.78
2018-06-08T07:58:46.650Z,30.78
2018-06-08T07:59:56.739Z,30.93
2018-06-08T08:01:06.868Z,31.13
2018-06-08T08:02:17.024Z,31.28
2018-06-08T08:03:26.852Z,31.47
2018-06-08T08:04:36.731Z,31.67
2018-06-08T08:05:46.797Z,31.7
2018-06-08T08:06:56.635Z,31.74
2018-06-08T08:08:06.700Z,31.91
2018-06-08T08:09:16.921Z,31.9
2018-06-08T08:10:26.895Z,32
2018-06-08T08:11:36.967Z,32.24
2018-06-08T08:12:47.060Z,32.27
2018-06-08T08:13:57.144Z,32.15
2018-06-08T08:15:06.698Z,32.43
2018-06-08T08:16:16.814Z,32.68
2018-06-08T08:17:26.901Z,32.83
2018-06-08T08:18:36.732Z,33.17
2018-06-08T08:19:46.834Z,33.17
2018-06-08T08:20:56.403Z,32.94
2018-06-08T08:22:05.954Z,32.75
2018-06-08T08:23:16.030Z,32.98
2018-06-08T08:24:25.864Z,32.96
2018-06-08T08:25:35.946Z,32.93
2018-06-08T08:26:46.019Z,32.9
2018-06-08T08:27:56.105Z,33.13
2018-06-08T08:29:06.201Z,33.55
2018-06-08T08:30:16.290Z,33.78
2018-06-08T08:31:26.387Z,34.1
2018-06-08T08:32:36.463Z,34.02
2018-06-08T08:33:46.539Z,34.06
2018-06-08T08:34:56.630Z,33.95
2018-06-08T08:36:06.725Z,33.9
2018-06-08T08:37:16.814Z,33.63
2018-06-08T08:38:26.895Z,33.37
2018-06-08T08:39:37.023Z,33.4
2018-06-08T08:40:47.201Z,33.46
2018-06-08T08:41:57.292Z,33.39
2018-06-08T08:43:07.385Z,33.48
2018-06-08T08:44:17.460Z,33.31
2018-06-08T08:45:27.567Z,33.18
2018-06-08T08:46:37.663Z,33.05
2018-06-08T08:47:47.747Z,33.01
2018-06-08T08:48:57.836Z,33.41
2018-06-08T08:50:07.694Z,33.71
2018-06-08T08:51:17.825Z,33.74
2018-06-08T08:52:27.907Z,33.73
2018-06-08T08:53:37.979Z,33.55
2018-06-08T08:54:47.799Z,33.31
2018-06-08T08:55:57.891Z,33.23
2018-06-08T08:57:07.898Z,33.39
2018-06-08T08:58:17.731Z,33.95
2018-06-08T08:59:27.316Z,34.36
2018-06-08T09:00:37.390Z,34.36
2018-06-08T09:01:47.530Z,34.18
2018-06-08T09:02:57.356Z,34.18
2018-06-08T09:04:07.442Z,34.26
2018-06-08T09:05:17.527Z,34.06
2018-06-08T09:06:27.597Z,34.37
2018-06-08T09:07:37.773Z,34.78
2018-06-08T09:08:47.886Z,35.04
2018-06-08T09:09:58.062Z,34.9
2018-06-08T09:11:08.155Z,34.21
2018-06-08T09:12:17.988Z,34.03
2018-06-08T09:13:28.077Z,33.89
2018-06-08T09:14:38.151Z,33.69
2018-06-08T09:15:48.232Z,33.77
2018-06-08T09:16:58.329Z,33.71
2018-06-08T09:18:08.169Z,34
2018-06-08T09:19:18.003Z,34.39
2018-06-08T09:20:28.111Z,34.67
2018-06-08T09:21:38.205Z,34.59
2018-06-08T09:22:48.047Z,34.34
2018-06-08T09:23:58.137Z,34.11
2018-06-08T09:25:07.964Z,33.92
2018-06-08T09:26:18.108Z,33.78
2018-06-08T09:27:28.307Z,34.24
2018-06-08T09:28:38.411Z,34.55
2018-06-08T09:29:48.509Z,34.66
2018-06-08T09:30:58.348Z,34.64
2018-06-08T09:32:08.208Z,34.3
2018-06-08T09:33:18.449Z,34.08
2018-06-08T09:34:28.520Z,33.87
2018-06-08T09:35:38.601Z,33.87
2018-06-08T09:36:48.707Z,33.87
2018-06-08T09:37:58.838Z,33.87
2018-06-08T09:39:08.686Z,33.9
2018-06-08T09:40:18.527Z,33.74
2018-06-08T09:41:28.614Z,33.74
2018-06-08T09:42:38.416Z,34.02
2018-06-08T09:43:48.525Z,34.06
2018-06-08T09:44:58.600Z,33.9
2018-06-08T09:46:08.758Z,33.96
2018-06-08T09:47:18.981Z,33.89
2018-06-08T09:48:29.065Z,33.85
2018-06-08T09:49:39.237Z,33.73
2018-06-08T09:50:49.102Z,33.74
2018-06-08T09:51:59.184Z,33.77
2018-06-08T09:53:09.004Z,33.71
2018-06-08T09:54:19.098Z,33.62
2018-06-08T09:55:29.211Z,33.61
2018-06-08T09:56:39.311Z,33.71
2018-06-08T09:57:49.394Z,33.8
2018-06-08T09:58:59.489Z,33.85
2018-06-08T10:00:09.626Z,34.06
2018-06-08T10:01:19.725Z,34.45
2018-06-08T10:02:29.798Z,34.63
2018-06-08T10:03:39.891Z,34.49
2018-06-08T10:04:49.986Z,34.4
2018-06-08T10:06:00.047Z,34.39
2018-06-08T10:07:10.138Z,34.37
2018-06-08T10:08:19.969Z,34.43
2018-06-08T10:09:30.066Z,34.9
2018-06-08T10:10:39.894Z,34.94
2018-06-08T10:11:49.979Z,34.83
2018-06-08T10:13:00.107Z,34.66
2018-06-08T10:14:09.928Z,34.48
2018-06-08T10:15:19.765Z,34.52
2018-06-08T10:16:29.849Z,34.63
2018-06-08T10:17:40.012Z,35.08
2018-06-08T10:18:49.828Z,35.2
2018-06-08T10:19:59.909Z,34.86
2018-06-08T10:21:10.023Z,34.97
2018-06-08T10:22:20.128Z,35.09
2018-06-08T10:23:30.208Z,34.79
2018-06-08T10:24:40.085Z,34.84
2018-06-08T10:25:50.167Z,34.81
2018-06-08T10:27:00.265Z,34.72
2018-06-08T10:28:10.367Z,34.86
2018-06-08T10:29:20.550Z,35.01
2018-06-08T10:30:30.639Z,35.13
2018-06-08T10:31:40.723Z,35.35
2018-06-08T10:32:50.827Z,35.45
2018-06-08T10:34:01.006Z,35.58
2018-06-08T10:35:11.171Z,35.74
2018-06-08T10:36:21.257Z,35.77
2018-06-08T10:37:31.077Z,35.92
2018-06-08T10:38:41.173Z,35.96
2018-06-08T10:39:51.003Z,35.8
2018-06-08T10:41:01.257Z,35.65
2018-06-08T10:42:11.360Z,35.71
2018-06-08T10:43:21.184Z,35.38
2018-06-08T10:44:31.270Z,35.11
2018-06-08T10:45:41.380Z,35.09
2018-06-08T10:46:51.475Z,35.33
2018-06-08T10:48:01.652Z,35.39
2018-06-08T10:49:10.971Z,35.46
2018-06-08T10:50:21.068Z,35.68
2018-06-08T10:51:30.884Z,35.86
2018-06-08T10:52:41.013Z,36.12
2018-06-08T10:53:51.089Z,36.24
2018-06-08T10:55:01.202Z,36.25
2018-06-08T10:56:11.320Z,36.22
2018-06-08T10:57:20.616Z,35.69
2018-06-08T10:58:30.739Z,35.34
2018-06-08T10:59:40.844Z,35.08
2018-06-08T11:00:50.947Z,35.08
2018-06-08T11:02:01.045Z,35.23
2018-06-08T11:03:10.887Z,35.08
2018-06-08T11:04:20.972Z,35.31
2018-06-08T11:05:31.057Z,35.57
2018-06-08T11:06:41.132Z,35.96
2018-06-08T11:07:51.226Z,36.19
2018-06-08T11:09:01.323Z,36.26
2018-06-08T11:10:11.401Z,36.47
2018-06-08T11:11:21.277Z,36.61
2018-06-08T11:12:31.357Z,36.63
2018-06-08T11:13:41.442Z,36.58
2018-06-08T11:14:51.014Z,36.65
2018-06-08T11:16:01.095Z,36.68
2018-06-08T11:17:10.933Z,36.73
2018-06-08T11:18:21.030Z,36.81
2018-06-08T11:19:31.120Z,36.86
2018-06-08T11:20:41.204Z,36.8
2018-06-08T11:21:51.059Z,36.88
2018-06-08T11:23:01.148Z,37
2018-06-08T11:24:11.218Z,37.11
2018-06-08T11:25:21.309Z,37.27
2018-06-08T11:26:31.399Z,37.27
2018-06-08T11:27:41.477Z,37.29
2018-06-08T11:28:51.036Z,37.33
2018-06-08T11:30:01.133Z,37.23
2018-06-08T11:31:11.213Z,37.3
2018-06-08T11:32:21.297Z,37.46
2018-06-08T11:33:31.107Z,37.44
2018-06-08T11:34:41.192Z,37.24
2018-06-08T11:35:51.330Z,37.53
2018-06-08T11:37:00.891Z,37.54
2018-06-08T11:38:10.719Z,37.76
2018-06-08T11:39:21.057Z,37.9
2018-06-08T11:40:31.012Z,37.94
2018-06-08T11:41:40.839Z,37.83
2018-06-08T11:42:50.913Z,37.98
2018-06-08T11:44:01.008Z,37.88
2018-06-08T11:45:10.568Z,37.68
2018-06-08T11:46:20.462Z,37.34
2018-06-08T11:47:30.554Z,37.36
2018-06-08T11:48:40.402Z,37.46
2018-06-08T11:49:50.502Z,37.56
2018-06-08T11:51:00.584Z,37.48
2018-06-08T11:52:10.451Z,37.31
2018-06-08T11:53:20.418Z,37.26
2018-06-08T11:54:30.346Z,37.24
2018-06-08T11:55:40.458Z,37.02
2018-06-08T11:56:50.550Z,36.74
2018-06-08T11:58:00.666Z,36.52
2018-06-08T11:59:10.225Z,36.56
2018-06-08T12:00:20.153Z,36.62
2018-06-08T12:01:29.724Z,36.78
2018-06-08T12:02:39.808Z,37.08
2018-06-08T12:03:49.644Z,37.04
2018-06-08T12:04:59.748Z,37.04
2018-06-08T12:06:09.560Z,36.7
2018-06-08T12:07:19.387Z,36.39
2018-06-08T12:08:29.477Z,36.05
2018-06-08T12:09:39.563Z,35.69
2018-06-08T12:10:49.136Z,35.43
2018-06-08T12:11:58.957Z,35.31
2018-06-08T12:13:09.053Z,35.3
2018-06-08T12:14:19.156Z,35.55
2018-06-08T12:15:29.245Z,35.76
2018-06-08T12:16:39.334Z,36.06
2018-06-08T12:17:49.454Z,35.86
2018-06-08T12:19:00.800Z,35.5
2018-06-08T12:20:11.538Z,35.26
2018-06-08T12:21:21.367Z,35.31
2018-06-08T12:22:31.478Z,35.38
2018-06-08T12:23:41.596Z,35.71
2018-06-08T12:24:51.463Z,36.21
2018-06-08T12:26:01.566Z,36.33
2018-06-08T12:27:11.672Z,36.49
2018-06-08T12:28:21.772Z,36.65
2018-06-08T12:29:31.887Z,36.78
2018-06-08T12:30:41.813Z,36.88
2018-06-08T12:31:52.056Z,36.93
2018-06-08T12:33:02.162Z,36.89
2018-06-08T12:34:12.270Z,36.86
2018-06-08T12:35:22.103Z,36.8
2018-06-08T12:36:32.202Z,36.61
2018-06-08T12:37:42.319Z,36.59
2018-06-08T12:38:52.432Z,36.4
2018-06-08T12:40:02.514Z,36.47
2018-06-08T12:41:12.647Z,36.55
2018-06-08T12:42:22.786Z,36.58
2018-06-08T12:43:32.989Z,36.77
2018-06-08T12:44:43.429Z,36.83
2018-06-08T12:45:53.538Z,36.93
2018-06-08T12:47:03.662Z,37.15
2018-06-08T12:48:13.779Z,37.12
2018-06-08T12:49:23.890Z,37.18
2018-06-08T12:50:34.046Z,36.99
2018-06-08T12:51:43.917Z,36.77
2018-06-08T12:52:53.520Z,36.8
2018-06-08T12:54:03.636Z,36.83
2018-06-08T12:55:13.732Z,36.81
2018-06-08T12:56:23.637Z,36.73
2018-06-08T12:57:33.733Z,36.71
2018-06-08T12:58:43.842Z,36.58
2018-06-08T12:59:53.959Z,36.49
2018-06-08T13:01:03.797Z,36.36
2018-06-08T13:02:13.911Z,36.4
2018-06-08T13:03:24.014Z,36.65
2018-06-08T13:04:33.840Z,36.61
2018-06-08T13:05:43.675Z,36.56
2018-06-08T13:06:53.756Z,36.53
2018-06-08T13:08:03.847Z,36.47
2018-06-08T13:09:13.748Z,36.3
2018-06-08T13:10:23.321Z,36.08
2018-06-08T13:11:33.401Z,36.02
2018-06-08T13:12:43.491Z,35.68
2018-06-08T13:13:53.584Z,35.72
2018-06-08T13:15:03.552Z,35.69
2018-06-08T13:16:13.676Z,35.53
2018-06-08T13:17:23.758Z,35.4
2018-06-08T13:18:33.598Z,35.34
2018-06-08T13:19:43.423Z,35.52
2018-06-08T13:20:53.524Z,35.65
2018-06-08T13:22:03.639Z,35.76
2018-06-08T13:23:13.755Z,35.9
2018-06-08T13:24:23.929Z,35.99
2018-06-08T13:25:34.125Z,36.04
2018-06-08T13:26:44.251Z,35.96
2018-06-08T13:27:54.353Z,35.9
2018-06-08T13:29:04.168Z,35.74
2018-06-08T13:30:13.735Z,35.57
2018-06-08T13:31:23.822Z,35.52
2018-06-08T13:32:34.952Z,35.53
2018-06-08T13:33:45.067Z,35.67
2018-06-08T13:34:54.662Z,35.72
2018-06-08T13:36:03.958Z,35.65
2018-06-08T13:37:13.810Z,35.67
2018-06-08T13:38:23.384Z,35.64
2018-06-08T13:39:33.556Z,35.68
2018-06-08T13:40:43.772Z,35.77
2018-06-08T13:41:53.874Z,35.79
2018-06-08T13:43:03.979Z,35.89
2018-06-08T13:44:13.807Z,35.9
2018-06-08T13:45:23.923Z,35.89
2018-06-08T13:46:34.008Z,35.74
2018-06-08T13:47:44.111Z,35.74
2018-06-08T13:48:54.203Z,35.92
2018-06-08T13:50:04.368Z,36.14
2018-06-08T13:51:14.442Z,36.21
2018-06-08T13:52:24.534Z,36.19
2018-06-08T13:53:34.685Z,36.24
2018-06-08T13:54:44.795Z,36.32
2018-06-08T13:55:54.687Z,36.21
2018-06-08T13:57:04.773Z,36.19
2018-06-08T13:58:14.908Z,36.22
2018-06-08T13:59:24.744Z,36.19
2018-06-08T14:00:34.843Z,36.34
2018-06-08T14:01:44.683Z,36.19
2018-06-08T14:02:54.532Z,36.19
2018-06-08T14:04:04.346Z,36.19
2018-06-08T14:05:13.916Z,36.22
2018-06-08T14:06:24.013Z,36.46
2018-06-08T14:07:34.153Z,36.49
2018-06-08T14:08:44.245Z,36.68
2018-06-08T14:09:54.318Z,36.81
2018-06-08T14:11:04.173Z,36.7
2018-06-08T14:12:14.268Z,36.7
2018-06-08T14:13:24.371Z,36.59
2018-06-08T14:14:34.471Z,36.59
2018-06-08T14:15:44.580Z,36.55
2018-06-08T14:16:54.708Z,36.43
2018-06-08T14:18:04.816Z,36.43
2018-06-08T14:19:14.953Z,36.17
2018-06-08T14:20:25.058Z,36.09
2018-06-08T14:21:35.150Z,36.22
2018-06-08T14:22:45.262Z,36.22
2018-06-08T14:23:55.387Z,36.19
2018-06-08T14:25:05.476Z,36.26
2018-06-08T14:26:15.301Z,36.21
2018-06-08T14:27:25.150Z,36.06
2018-06-08T14:28:35.334Z,35.86
2018-06-08T14:29:45.428Z,35.65
2018-06-08T14:30:55.253Z,35.76
2018-06-08T14:32:05.337Z,35.6
2018-06-08T14:33:15.434Z,35.45
2018-06-08T14:34:25.283Z,35.39
2018-06-08T14:35:35.379Z,35.42
2018-06-08T14:36:45.533Z,35.46
2018-06-08T14:37:55.135Z,35.53
2018-06-08T14:39:05.228Z,35.65
2018-06-08T14:40:15.334Z,35.76
2018-06-08T14:41:25.430Z,35.8
2018-06-08T14:42:35.286Z,35.79
2018-06-08T14:43:45.363Z,35.58
2018-06-08T14:44:55.492Z,35.43
2018-06-08T14:46:05.329Z,35.52
2018-06-08T14:47:15.508Z,35.52
2018-06-08T14:48:25.897Z,35.5
2018-06-08T14:49:35.983Z,35.47
2018-06-08T14:50:45.826Z,35.31
2018-06-08T14:51:55.978Z,35.4
2018-06-08T14:53:05.822Z,35.31
2018-06-08T14:54:15.964Z,35.23
2018-06-08T14:55:26.087Z,35.12
2018-06-08T14:56:36.209Z,35.05
2018-06-08T14:57:46.043Z,35.11
2018-06-08T14:58:55.687Z,34.96
2018-06-08T15:00:05.621Z,34.93
2018-06-08T15:01:15.766Z,34.99
2018-06-08T15:02:25.876Z,34.9
2018-06-08T15:03:35.957Z,34.81
2018-06-08T15:04:46.154Z,34.81
2018-06-08T15:05:56.012Z,34.78
2018-06-08T15:07:05.841Z,34.83
2018-06-08T15:08:15.929Z,34.79
2018-06-08T15:09:26.048Z,34.86
2018-06-08T15:10:36.147Z,34.84
2018-06-08T15:11:46.286Z,34.86
2018-06-08T15:12:56.423Z,34.91
2018-06-08T15:14:06.257Z,34.93
2018-06-08T15:15:16.351Z,34.78
2018-06-08T15:16:26.441Z,34.83
2018-06-08T15:17:36.659Z,34.72
2018-06-08T15:18:46.524Z,34.56
2018-06-08T15:19:56.618Z,34.41
2018-06-08T15:21:06.729Z,34.49
2018-06-08T15:22:16.827Z,34.27
2018-06-08T15:23:26.645Z,34.12
2018-06-08T15:24:36.762Z,34.1
2018-06-08T15:25:46.853Z,34.27
2018-06-08T15:26:56.949Z,34.3
2018-06-08T15:28:07.045Z,34.36
2018-06-08T15:29:16.957Z,34.39
2018-06-08T15:30:26.928Z,34.32
2018-06-08T15:31:37.125Z,34.36
2018-06-08T15:32:46.946Z,34.3
2018-06-08T15:33:57.049Z,34.37
2018-06-08T15:35:07.252Z,34.4
2018-06-08T15:36:17.331Z,34.54